La Aurora Airport Guatemala City US
ICAO: MGGT
IATA: GUA
Category: Medium
Scheduled Services: Yes

Elevation: 4952 ft
TransAlt. 18000 ft.

Airport Communications:
GUATEMALA RDO:126.9
CON:119.3
ATIS:126.5
CLNC DEL:120.7
GND:121.9
TWR:118.1

MGGT Zoom In..

Runways:

(A) RW 01 length 9800 ft width 197 ft
ILS 110.10 / hdg 16

(B) RW 19 length 9800 ft width 197 ft
---- / hdg 196

Location; MGGT
Day. 14 / Time. 02.00 Zulu
* Altimeter: 30.33
* Temperature: 18° c. 64.4°f.
* Wind from: 020° Speed 04 kn.
Dewpoint: 17° c.
Visibility: 8000 m.
Clouds: Scattered 1400 ft.
Clouds: Scattered 8000 ft.

MGGT 140200Z 02004KT 8000 SCT014 SCT080 18/17 Q1027 A3033 BR

Going to: --> -->


Wind From 020°
Speed 04 kn.

 
 
jpsmedia worldairports.se 2020   terms of use